Time;durP1;ratioP1;P1;durP2;ratioP2;P2;SDS_P1;SDS_P2;PMS_P1;PMS_P2;Temp;Humidity;BMP_temperature;BMP_pressure;BME280_temperature;BME280_humidity;BME280_pressure;Samples;Min_cycle;Max_cycle;Signal;HPM_P1;HPM_P2
2022/06/29 00:00:27;;;;;;;5.67;5.07;;;20.60;99.90;;;;;;5020049;28;20410;-54
2022/06/29 00:02:55;;;;;;;5.20;4.80;;;20.40;99.90;;;;;;5019336;28;20491;-48
2022/06/29 00:05:25;;;;;;;4.53;4.13;;;20.30;99.90;;;;;;5019361;28;20510;-50
2022/06/29 00:07:56;;;;;;;5.07;4.63;;;20.30;99.90;;;;;;5019491;28;20450;-47
2022/06/29 00:10:24;;;;;;;4.77;4.37;;;20.30;99.90;;;;;;5019591;28;20675;-48
2022/06/29 00:12:52;;;;;;;5.23;4.73;;;20.20;99.90;;;;;;5017294;28;20468;-53
2022/06/29 00:15:20;;;;;;;5.23;4.73;;;20.10;99.90;;;;;;5019357;28;20760;-57
2022/06/29 00:17:48;;;;;;;5.40;4.90;;;20.20;99.90;;;;;;5014211;28;20474;-50
2022/06/29 00:20:16;;;;;;;5.20;4.70;;;20.10;99.90;;;;;;5019420;28;20667;-47
2022/06/29 00:22:45;;;;;;;3.97;3.67;;;20.10;99.90;;;;;;5019704;28;20455;-52
2022/06/29 00:25:14;;;;;;;4.80;4.40;;;20.10;99.90;;;;;;5020326;28;20446;-53
2022/06/29 00:27:43;;;;;;;5.47;4.93;;;20.00;99.90;;;;;;5019766;28;20425;-47
2022/06/29 00:30:10;;;;;;;5.13;4.70;;;20.00;99.90;;;;;;5020714;28;20415;-47
2022/06/29 00:32:38;;;;;;;5.73;5.23;;;20.00;99.90;;;;;;5024567;28;20449;-50
2022/06/29 00:35:06;;;;;;;5.37;4.87;;;20.00;99.90;;;;;;5027358;28;20446;-56
2022/06/29 00:37:33;;;;;;;5.20;4.80;;;20.00;99.90;;;;;;5024679;28;20488;-49
2022/06/29 00:40:00;;;;;;;5.23;4.73;;;19.90;99.90;;;;;;5021674;28;20481;-57
2022/06/29 00:42:29;;;;;;;4.60;4.20;;;20.00;99.90;;;;;;5020107;28;20631;-54
2022/06/29 00:44:56;;;;;;;4.53;4.13;;;19.80;99.90;;;;;;5020188;28;20766;-50
2022/06/29 00:47:23;;;;;;;5.77;5.17;;;19.80;99.90;;;;;;5020039;28;20661;-50
2022/06/29 00:49:50;;;;;;;5.80;5.20;;;19.80;99.90;;;;;;5018419;28;20462;-48
2022/06/29 00:52:22;;;;;;;4.47;4.17;;;19.80;99.90;;;;;;5011778;28;20493;-49
2022/06/29 00:54:55;;;;;;;6.47;5.37;;;19.70;99.90;;;;;;5015078;28;20409;-54
2022/06/29 00:57:26;;;;;;;6.00;4.60;;;19.70;99.90;;;;;;5020622;28;20552;-55
2022/06/29 00:59:58;;;;;;;4.83;4.43;;;19.70;99.90;;;;;;5021753;28;20410;-54
2022/06/29 01:02:29;;;;;;;5.90;5.30;;;19.60;99.90;;;;;;5010964;28;20434;-54
2022/06/29 01:05:00;;;;;;;5.27;4.77;;;19.70;99.90;;;;;;5014360;28;20629;-56
2022/06/29 01:07:30;;;;;;;4.37;3.97;;;19.60;99.90;;;;;;5015141;28;20506;-53
2022/06/29 01:09:58;;;;;;;5.57;5.07;;;19.60;99.90;;;;;;5019515;28;20440;-47
2022/06/29 01:12:25;;;;;;;5.70;5.20;;;19.60;99.90;;;;;;5011522;28;20474;-51
2022/06/29 01:14:55;;;;;;;5.50;5.00;;;19.70;99.90;;;;;;5011778;28;20839;-53
2022/06/29 01:17:23;;;;;;;5.00;4.60;;;19.70;99.90;;;;;;5013295;28;20453;-55
2022/06/29 01:19:51;;;;;;;6.23;4.90;;;19.70;99.90;;;;;;5013345;28;20462;-50
2022/06/29 01:22:20;;;;;;;4.90;4.50;;;19.70;99.90;;;;;;5011143;28;20430;-52
2022/06/29 01:24:49;;;;;;;6.00;4.40;;;19.60;99.90;;;;;;5011339;28;20409;-49
2022/06/29 01:27:19;;;;;;;4.80;4.33;;;19.60;99.90;;;;;;5018497;28;20413;-50
2022/06/29 01:29:47;;;;;;;4.43;4.03;;;19.60;99.90;;;;;;5012562;28;20432;-53
2022/06/29 01:32:14;;;;;;;5.80;4.77;;;19.70;99.90;;;;;;5014729;28;20548;-50
2022/06/29 01:34:42;;;;;;;4.77;4.30;;;19.70;99.90;;;;;;5013858;28;20431;-51
2022/06/29 01:37:10;;;;;;;5.63;4.87;;;19.70;99.90;;;;;;5014346;28;20666;-52
2022/06/29 01:39:38;;;;;;;4.80;4.27;;;19.60;99.90;;;;;;5014892;28;20415;-51
2022/06/29 01:42:09;;;;;;;4.70;4.30;;;19.70;99.90;;;;;;5014844;28;20486;-48
2022/06/29 01:44:37;;;;;;;4.90;4.43;;;19.70;99.90;;;;;;5012520;28;20765;-53
2022/06/29 01:47:05;;;;;;;7.40;4.60;;;19.80;99.90;;;;;;5017565;28;20448;-52
2022/06/29 01:49:32;;;;;;;4.43;4.03;;;19.80;99.90;;;;;;5012640;28;20698;-55
2022/06/29 01:52:00;;;;;;;5.60;5.10;;;19.80;99.90;;;;;;5016477;28;20432;-48
2022/06/29 01:54:27;;;;;;;6.67;5.57;;;19.70;99.90;;;;;;5013375;28;20455;-52
2022/06/29 01:56:55;;;;;;;4.67;4.27;;;19.80;99.90;;;;;;5015898;28;20701;-52
2022/06/29 01:59:22;;;;;;;5.03;4.63;;;19.80;99.90;;;;;;5022485;28;20414;-54
2022/06/29 02:01:49;;;;;;;5.17;3.77;;;19.80;99.90;;;;;;5010552;28;20551;-48
2022/06/29 02:04:17;;;;;;;5.23;4.70;;;19.80;99.90;;;;;;5018230;28;20466;-52
2022/06/29 02:06:44;;;;;;;5.80;5.20;;;19.80;99.90;;;;;;5010824;28;20410;-54
2022/06/29 02:09:11;;;;;;;5.33;4.70;;;19.70;99.90;;;;;;5011145;28;20436;-50
2022/06/29 02:11:39;;;;;;;4.70;4.30;;;19.70;99.90;;;;;;5018452;28;20664;-50
2022/06/29 02:14:07;;;;;;;5.07;4.57;;;19.70;99.90;;;;;;5011047;28;20414;-48
2022/06/29 02:16:34;;;;;;;4.57;3.90;;;19.60;99.90;;;;;;5018603;28;20463;-47
2022/06/29 02:19:02;;;;;;;6.17;5.57;;;19.60;99.90;;;;;;5010227;28;20436;-54
2022/06/29 02:21:29;;;;;;;6.03;5.50;;;19.70;99.90;;;;;;5018280;28;20420;-53
2022/06/29 02:23:56;;;;;;;6.23;5.60;;;19.60;99.90;;;;;;5010138;28;20806;-49
2022/06/29 02:26:23;;;;;;;7.67;5.33;;;19.50;99.90;;;;;;5010577;28;20437;-57
2022/06/29 02:28:51;;;;;;;4.70;4.30;;;19.50;99.90;;;;;;5017992;28;20741;-50
2022/06/29 02:36:50;;;;;;;5.83;5.23;;;19.50;99.90;;;;;;5014403;28;20497;-53
2022/06/29 02:39:17;;;;;;;8.20;4.93;;;19.60;99.90;;;;;;5014044;28;20439;-50
2022/06/29 02:41:45;;;;;;;9.17;7.13;;;19.60;99.90;;;;;;5013095;28;20417;-49
2022/06/29 02:44:12;;;;;;;5.77;5.30;;;19.60;99.90;;;;;;5014288;28;20443;-48
2022/06/29 02:46:39;;;;;;;5.97;5.40;;;19.60;99.90;;;;;;5013773;28;20771;-48
2022/06/29 02:49:07;;;;;;;6.47;5.87;;;19.60;99.90;;;;;;5013097;28;20809;-50
2022/06/29 02:51:34;;;;;;;6.90;6.17;;;19.60;99.90;;;;;;5012894;28;20414;-48
2022/06/29 02:54:02;;;;;;;6.97;6.33;;;19.60;99.90;;;;;;5013968;28;20449;-53
2022/06/29 02:56:29;;;;;;;9.93;6.60;;;19.60;99.90;;;;;;5012501;28;20462;-48
2022/06/29 02:58:59;;;;;;;8.60;6.60;;;19.60;99.90;;;;;;5006462;28;20806;-47
2022/06/29 03:01:26;;;;;;;6.57;5.97;;;19.70;99.90;;;;;;5015933;28;20461;-51
2022/06/29 03:03:55;;;;;;;7.20;6.43;;;19.60;99.90;;;;;;5013806;28;20479;-53
2022/06/29 03:06:22;;;;;;;9.07;7.10;;;19.60;99.90;;;;;;5012867;28;20728;-48
2022/06/29 03:08:49;;;;;;;7.83;6.67;;;19.50;99.90;;;;;;5008394;28;20488;-47
2022/06/29 03:11:17;;;;;;;7.57;6.87;;;19.60;99.90;;;;;;5016684;28;20413;-54
2022/06/29 03:13:44;;;;;;;6.87;6.27;;;19.50;99.90;;;;;;5009850;28;20813;-48
2022/06/29 03:16:11;;;;;;;6.37;5.77;;;19.50;99.90;;;;;;5016689;28;20405;-51
2022/06/29 03:18:38;;;;;;;7.63;6.63;;;19.60;99.90;;;;;;5009989;28;20489;-51
2022/06/29 03:21:05;;;;;;;7.30;6.60;;;19.60;99.90;;;;;;5015725;28;20413;-49
2022/06/29 03:23:33;;;;;;;9.20;6.90;;;19.60;99.90;;;;;;5010167;28;20463;-50
2022/06/29 03:26:00;;;;;;;8.20;7.40;;;19.60;99.90;;;;;;5009403;28;20460;-51
2022/06/29 03:28:27;;;;;;;9.80;7.57;;;19.70;99.90;;;;;;5017262;28;20485;-47
2022/06/29 03:30:55;;;;;;;8.83;7.93;;;19.70;99.90;;;;;;5008396;28;20435;-52
2022/06/29 03:33:22;;;;;;;11.10;8.70;;;19.60;99.90;;;;;;5016559;28;20441;-52
2022/06/29 03:35:49;;;;;;;7.80;7.00;;;19.50;99.90;;;;;;5008509;28;20426;-48
2022/06/29 03:38:16;;;;;;;9.00;8.10;;;19.50;99.90;;;;;;5016348;28;20456;-49
2022/06/29 03:40:43;;;;;;;8.20;7.37;;;19.50;99.90;;;;;;5008331;28;20761;-52
2022/06/29 03:43:11;;;;;;;9.90;7.63;;;19.60;99.90;;;;;;5009724;28;20463;-47
2022/06/29 03:45:38;;;;;;;9.37;7.70;;;19.60;99.90;;;;;;5016776;28;20784;-49
2022/06/29 03:48:06;;;;;;;8.10;7.30;;;19.70;99.90;;;;;;5009871;28;20497;-52
2022/06/29 03:50:33;;;;;;;9.40;7.73;;;19.70;99.90;;;;;;5016323;28;20442;-49
2022/06/29 03:53:01;;;;;;;8.60;7.70;;;19.90;99.90;;;;;;5008038;28;20467;-51
2022/06/29 03:55:28;;;;;;;8.60;7.80;;;19.80;99.90;;;;;;5017167;28;20439;-52
2022/06/29 03:57:55;;;;;;;8.50;7.70;;;19.70;99.90;;;;;;5000980;28;20965;-52
2022/06/29 04:00:23;;;;;;;9.13;8.23;;;19.60;99.90;;;;;;5008716;28;20789;-55
2022/06/29 04:02:50;;;;;;;8.87;7.97;;;19.60;99.90;;;;;;5011995;28;20440;-50
2022/06/29 04:05:17;;;;;;;9.10;8.23;;;19.60;99.90;;;;;;5012624;28;20425;-54
2022/06/29 04:07:44;;;;;;;8.30;7.40;;;19.70;99.90;;;;;;5010975;28;20438;-47
2022/06/29 04:10:12;;;;;;;8.53;7.73;;;19.70;99.90;;;;;;5011669;28;20488;-49
2022/06/29 04:12:39;;;;;;;9.27;8.30;;;19.70;99.90;;;;;;5011049;28;20819;-49
2022/06/29 04:15:07;;;;;;;9.90;8.93;;;19.70;99.90;;;;;;5011486;28;20442;-50
2022/06/29 04:17:35;;;;;;;9.30;8.40;;;19.60;99.90;;;;;;5010587;28;20479;-52
2022/06/29 04:20:04;;;;;;;10.73;8.60;;;19.50;99.90;;;;;;5011457;28;20428;-48
2022/06/29 04:22:34;;;;;;;9.87;8.17;;;19.50;99.90;;;;;;5011001;28;20690;-50
2022/06/29 04:25:05;;;;;;;14.30;10.00;;;19.50;99.90;;;;;;5011266;28;20415;-53
2022/06/29 04:27:32;;;;;;;8.73;7.83;;;19.50;99.90;;;;;;5011217;28;20629;-48
2022/06/29 04:30:00;;;;;;;10.40;9.40;;;19.50;99.90;;;;;;5010749;28;20458;-50
2022/06/29 04:32:27;;;;;;;10.10;9.00;;;19.50;99.90;;;;;;5011274;28;20491;-54
2022/06/29 04:34:54;;;;;;;9.00;8.10;;;19.40;99.90;;;;;;5011032;28;20443;-54
2022/06/29 04:37:21;;;;;;;9.40;8.13;;;19.50;99.90;;;;;;5010304;28;20824;-50
2022/06/29 04:39:48;;;;;;;9.17;8.27;;;19.50;99.90;;;;;;5011212;28;20425;-47
2022/06/29 04:42:15;;;;;;;9.87;8.57;;;19.60;99.90;;;;;;5011092;28;20455;-47
2022/06/29 04:44:44;;;;;;;9.30;8.10;;;19.70;99.90;;;;;;5011077;28;20446;-47
2022/06/29 04:47:11;;;;;;;8.50;7.60;;;19.70;99.90;;;;;;5024217;28;20446;-51
2022/06/29 04:49:39;;;;;;;13.07;8.40;;;19.60;99.90;;;;;;5018712;28;20422;-51
2022/06/29 04:52:06;;;;;;;9.30;8.10;;;19.60;99.90;;;;;;5011258;28;20421;-47
2022/06/29 04:54:33;;;;;;;9.57;8.57;;;19.70;99.90;;;;;;5018022;28;20440;-52
2022/06/29 04:57:00;;;;;;;11.00;9.07;;;19.70;99.90;;;;;;5006959;28;20454;-51
2022/06/29 04:59:27;;;;;;;9.23;8.37;;;19.70;99.90;;;;;;5007860;28;20485;-52
2022/06/29 05:01:55;;;;;;;9.10;7.87;;;19.80;99.90;;;;;;5012380;28;20797;-51
2022/06/29 05:04:22;;;;;;;10.30;9.20;;;19.80;99.90;;;;;;5022495;28;20731;-52
2022/06/29 05:06:50;;;;;;;10.37;8.80;;;19.90;99.90;;;;;;5011098;28;20422;-49
2022/06/29 05:09:17;;;;;;;13.13;8.47;;;19.90;99.90;;;;;;5011065;28;20505;-55
2022/06/29 05:11:44;;;;;;;12.20;8.87;;;20.00;99.90;;;;;;5018925;28;20490;-51
2022/06/29 05:14:11;;;;;;;8.60;7.70;;;20.10;99.90;;;;;;5011681;28;20483;-47
2022/06/29 05:16:38;;;;;;;9.63;8.70;;;20.30;99.90;;;;;;5019674;28;20658;-49
2022/06/29 05:19:05;;;;;;;10.33;9.33;;;20.50;99.90;;;;;;5017951;28;20474;-46
2022/06/29 05:21:32;;;;;;;7.80;6.87;;;20.70;99.90;;;;;;5021609;28;20432;-48
2022/06/29 05:23:59;;;;;;;13.87;10.07;;;20.80;99.90;;;;;;5011537;28;20673;-51
2022/06/29 05:26:27;;;;;;;9.80;8.60;;;20.90;99.90;;;;;;5011445;28;20525;-54
2022/06/29 05:28:54;;;;;;;10.10;9.07;;;20.80;99.90;;;;;;5015963;28;20473;-52
2022/06/29 05:31:23;;;;;;;12.80;10.03;;;20.90;99.90;;;;;;5018867;28;20427;-57
2022/06/29 05:33:50;;;;;;;8.63;7.73;;;20.90;99.90;;;;;;5024482;28;20474;-49
2022/06/29 05:36:17;;;;;;;9.20;8.30;;;20.70;99.90;;;;;;5013639;28;20618;-48
2022/06/29 05:38:44;;;;;;;10.70;8.80;;;20.80;99.90;;;;;;5018837;28;20863;-47
2022/06/29 05:41:11;;;;;;;10.20;8.00;;;20.70;99.90;;;;;;5011146;28;20607;-50
2022/06/29 05:43:38;;;;;;;12.03;10.73;;;20.70;99.90;;;;;;5013092;28;20660;-52
2022/06/29 05:46:05;;;;;;;13.53;9.93;;;20.90;99.90;;;;;;5032033;28;20470;-48
2022/06/29 05:48:33;;;;;;;9.17;8.13;;;20.90;99.90;;;;;;5029537;28;20784;-51
2022/06/29 05:51:00;;;;;;;15.80;12.40;;;21.10;99.90;;;;;;5017201;28;20421;-48
2022/06/29 05:53:27;;;;;;;10.40;8.17;;;21.30;99.90;;;;;;5019854;28;20478;-54
2022/06/29 05:55:54;;;;;;;9.30;8.23;;;21.50;99.90;;;;;;5018077;28;20482;-51
2022/06/29 05:58:22;;;;;;;12.33;9.80;;;21.80;99.90;;;;;;5004320;28;20476;-50
2022/06/29 06:00:50;;;;;;;10.30;9.17;;;22.00;99.90;;;;;;5014978;28;20416;-50
2022/06/29 06:03:17;;;;;;;9.40;8.50;;;22.40;99.90;;;;;;5014747;28;20558;-54
2022/06/29 06:05:45;;;;;;;12.27;11.07;;;22.50;99.90;;;;;;5014240;28;20583;-50
2022/06/29 06:08:15;;;;;;;17.37;15.57;;;22.70;99.90;;;;;;5014482;28;20824;-47
2022/06/29 06:10:42;;;;;;;19.10;17.13;;;22.80;99.90;;;;;;5014273;28;20432;-51
2022/06/29 06:13:09;;;;;;;11.67;10.50;;;22.80;99.90;;;;;;5014090;28;20437;-50
2022/06/29 06:15:38;;;;;;;9.87;8.87;;;23.00;99.90;;;;;;5013498;28;20780;-46
2022/06/29 06:18:05;;;;;;;9.37;8.40;;;22.90;99.90;;;;;;5014296;28;20474;-52
2022/06/29 06:20:32;;;;;;;8.30;7.50;;;23.20;99.90;;;;;;5015273;28;20549;-50
2022/06/29 06:22:59;;;;;;;9.80;8.50;;;23.50;99.90;;;;;;5015662;28;20681;-49
2022/06/29 06:25:30;;;;;;;12.40;8.83;;;23.80;99.90;;;;;;5012576;28;20493;-52
2022/06/29 06:27:58;;;;;;;10.47;9.47;;;24.50;99.90;;;;;;5015510;28;20454;-54
2022/06/29 06:30:25;;;;;;;7.80;7.00;;;24.60;99.90;;;;;;5012806;28;20409;-52
2022/06/29 06:32:52;;;;;;;13.47;8.73;;;24.90;99.90;;;;;;5014373;28;20445;-56
2022/06/29 06:35:20;;;;;;;8.43;7.50;;;25.30;99.90;;;;;;5013748;28;20508;-53
2022/06/29 06:37:47;;;;;;;11.50;8.63;;;25.20;99.90;;;;;;5013721;28;20463;-51
2022/06/29 06:43:00;;;;;;;8.23;7.43;;;25.20;99.90;;;;;;5010636;28;20430;-50
2022/06/29 06:45:28;;;;;;;9.00;8.20;;;25.00;99.90;;;;;;5020711;28;20421;-53
2022/06/29 06:47:55;;;;;;;9.83;8.80;;;24.80;99.90;;;;;;5024743;28;20446;-50
2022/06/29 06:50:22;;;;;;;9.27;8.47;;;24.50;99.90;;;;;;5018570;28;20505;-54
2022/06/29 06:52:49;;;;;;;9.50;8.60;;;24.40;99.90;;;;;;5013106;28;20441;-52
2022/06/29 06:55:19;;;;;;;9.33;8.30;;;24.20;99.90;;;;;;5021355;28;20435;-51
2022/06/29 06:57:47;;;;;;;12.17;9.20;;;24.30;99.90;;;;;;5003188;28;20518;-50
2022/06/29 07:00:14;;;;;;;11.33;9.40;;;24.30;99.90;;;;;;5009688;28;20431;-46
2022/06/29 07:02:41;;;;;;;11.10;9.93;;;24.40;99.90;;;;;;5011967;28;20441;-50
2022/06/29 07:05:11;;;;;;;9.07;8.20;;;24.30;99.90;;;;;;5014488;28;20635;-50
2022/06/29 07:07:38;;;;;;;7.57;6.87;;;24.70;99.90;;;;;;5011966;28;20762;-48
2022/06/29 07:10:05;;;;;;;8.87;8.07;;;25.00;99.90;;;;;;5013061;28;20448;-57
2022/06/29 07:12:32;;;;;;;7.70;7.03;;;25.10;99.90;;;;;;5012741;28;20438;-54
2022/06/29 07:14:59;;;;;;;11.23;7.50;;;24.80;99.90;;;;;;5020675;28;20495;-53
2022/06/29 07:17:26;;;;;;;8.87;8.07;;;25.30;99.90;;;;;;5020395;28;20810;-49
2022/06/29 07:19:53;;;;;;;8.00;7.20;;;26.00;99.90;;;;;;5020911;28;20479;-48
2022/06/29 07:22:20;;;;;;;7.27;6.57;;;26.60;99.90;;;;;;5020436;28;20497;-51
2022/06/29 07:24:48;;;;;;;7.97;6.23;;;28.10;99.90;;;;;;5013077;28;20450;-52
2022/06/29 07:27:15;;;;;;;10.13;6.20;;;28.20;99.90;;;;;;5019560;28;20563;-51
2022/06/29 07:29:45;;;;;;;6.90;6.20;;;28.20;99.90;;;;;;5020735;28;20456;-49
2022/06/29 07:32:12;;;;;;;8.03;7.20;;;27.10;99.90;;;;;;5020565;28;20468;-54
2022/06/29 07:34:39;;;;;;;9.90;7.40;;;27.70;99.90;;;;;;5020660;28;20460;-52
2022/06/29 07:37:06;;;;;;;8.10;6.90;;;28.90;99.90;;;;;;5020924;28;20417;-51
2022/06/29 07:39:33;;;;;;;8.50;6.23;;;28.90;99.90;;;;;;5020210;28;20832;-51
2022/06/29 07:42:21;;;;;;;8.40;6.80;;;28.80;99.90;;;;;;5020662;28;20801;-49
2022/06/29 07:44:48;;;;;;;7.47;6.83;;;29.20;99.90;;;;;;5020597;28;20461;-54
2022/06/29 07:47:15;;;;;;;9.63;8.00;;;29.60;99.90;;;;;;5031745;28;20441;-53
2022/06/29 07:49:42;;;;;;;7.97;7.17;;;30.80;99.90;;;;;;5021477;28;20472;-49
2022/06/29 07:52:09;;;;;;;7.33;6.53;;;30.60;99.90;;;;;;5019879;28;20463;-52
2022/06/29 07:54:36;;;;;;;8.83;7.03;;;29.90;99.90;;;;;;5009531;28;20444;-51
2022/06/29 07:57:03;;;;;;;8.20;6.73;;;28.50;99.90;;;;;;5015517;28;20461;-50
2022/06/29 07:59:46;;;;;;;8.70;7.90;;;28.10;99.90;;;;;;5008696;28;20501;-50
2022/06/29 08:02:15;;;;;;;11.83;6.80;;;27.20;99.90;;;;;;5008106;28;20454;-52
2022/06/29 08:04:42;;;;;;;10.63;7.17;;;26.20;99.90;;;;;;5016972;28;20426;-50
2022/06/29 08:07:29;;;;;;;9.80;7.50;;;25.50;99.90;;;;;;5009422;28;20475;-55
2022/06/29 08:09:56;;;;;;;12.03;6.67;;;24.90;99.90;;;;;;5012698;28;20514;-47
2022/06/29 08:12:24;;;;;;;9.30;7.77;;;24.80;99.90;;;;;;5011012;28;20480;-50
2022/06/29 08:14:51;;;;;;;9.63;8.40;;;24.60;99.90;;;;;;5011622;28;20797;-48
2022/06/29 08:17:18;;;;;;;9.23;7.70;;;23.90;99.90;;;;;;5013356;28;20410;-54
2022/06/29 08:19:46;;;;;;;8.97;8.10;;;23.20;99.90;;;;;;5011520;28;20444;-53
2022/06/29 08:22:13;;;;;;;9.57;8.23;;;22.50;99.90;;;;;;5013108;28;20451;-55
2022/06/29 08:24:40;;;;;;;10.10;9.30;;;22.00;99.90;;;;;;5017846;28;20409;-54
2022/06/29 08:27:07;;;;;;;11.30;8.90;;;21.60;99.90;;;;;;5019866;28;20441;-57
2022/06/29 08:29:55;;;;;;;10.10;9.20;;;21.40;99.90;;;;;;5008663;28;20430;-55
2022/06/29 08:32:22;;;;;;;9.73;8.93;;;21.00;99.90;;;;;;5016870;28;20455;-51
2022/06/29 08:34:49;;;;;;;12.57;10.70;;;20.90;99.90;;;;;;5020214;28;20772;-51
2022/06/29 08:37:17;;;;;;;10.83;9.77;;;20.80;99.90;;;;;;5019548;28;20449;-49
2022/06/29 08:39:45;;;;;;;11.37;10.27;;;20.80;99.90;;;;;;5019509;28;20485;-52
2022/06/29 08:42:15;;;;;;;11.27;10.10;;;20.80;99.90;;;;;;5017315;28;20587;-51
2022/06/29 08:44:42;;;;;;;12.73;10.73;;;20.80;99.90;;;;;;5019240;28;20459;-52
2022/06/29 08:47:10;;;;;;;10.77;9.67;;;20.80;99.90;;;;;;5028095;28;20462;-51
2022/06/29 08:49:37;;;;;;;11.20;10.00;;;20.90;99.90;;;;;;5020570;28;20425;-52
2022/06/29 08:52:06;;;;;;;13.10;9.90;;;21.00;99.90;;;;;;5013963;28;20464;-48
2022/06/29 08:54:37;;;;;;;11.73;10.60;;;21.00;99.90;;;;;;5019279;28;20626;-53
2022/06/29 08:57:05;;;;;;;14.60;10.53;;;21.20;99.90;;;;;;5014511;28;20443;-52
2022/06/29 08:59:35;;;;;;;11.50;10.20;;;21.50;99.90;;;;;;5007837;28;20487;-50
2022/06/29 09:02:23;;;;;;;9.67;8.67;;;21.90;99.90;;;;;;5008101;28;20436;-55
2022/06/29 09:04:50;;;;;;;12.03;10.73;;;22.50;99.90;;;;;;5014964;28;20461;-51
2022/06/29 09:07:17;;;;;;;10.87;9.20;;;23.10;99.90;;;;;;5008133;28;20414;-50
2022/06/29 09:10:01;;;;;;;8.53;7.83;;;23.60;99.90;;;;;;5009975;28;20481;-48
2022/06/29 09:12:31;;;;;;;7.80;7.10;;;24.00;99.90;;;;;;5010260;28;20465;-52
2022/06/29 09:14:59;;;;;;;9.20;8.30;;;24.10;99.90;;;;;;5010609;28;20448;-50
2022/06/29 09:17:30;;;;;;;9.60;8.60;;;24.00;99.90;;;;;;5007578;28;20470;-48
2022/06/29 09:19:57;;;;;;;10.83;9.07;;;24.00;99.90;;;;;;5010118;28;20858;-56
2022/06/29 09:22:55;;;;;;;15.17;10.37;;;23.90;99.90;;;;;;5009637;28;20442;-53
2022/06/29 09:25:24;;;;;;;10.63;9.63;;;23.60;99.90;;;;;;5017618;28;20465;-52
2022/06/29 09:27:55;;;;;;;10.93;9.83;;;23.50;99.90;;;;;;5019435;28;20419;-57
2022/06/29 09:30:27;;;;;;;10.60;9.70;;;23.40;99.90;;;;;;5014738;28;20480;-59
2022/06/29 09:33:02;;;;;;;12.77;10.17;;;23.30;99.90;;;;;;5019124;28;20447;-58
2022/06/29 09:35:29;;;;;;;12.23;9.60;;;22.80;99.90;;;;;;5011342;28;20454;-58
2022/06/29 09:38:19;;;;;;;11.40;9.00;;;22.30;99.90;;;;;;5012357;28;20428;-57
2022/06/29 09:41:11;;;;;;;10.73;9.57;;;22.00;99.90;;;;;;5008013;28;20443;-56
2022/06/29 09:43:41;;;;;;;12.27;11.00;;;21.80;99.90;;;;;;5009296;28;20532;-57
2022/06/29 09:46:11;;;;;;;12.53;10.30;;;21.60;99.90;;;;;;5012350;28;20597;-52
2022/06/29 09:48:40;;;;;;;12.00;10.40;;;21.60;99.90;;;;;;5009497;28;20430;-52
2022/06/29 09:53:59;;;;;;;11.83;10.63;;;22.20;99.90;;;;;;5007131;28;20460;-54
2022/06/29 09:56:30;;;;;;;11.93;10.73;;;22.90;99.90;;;;;;5028699;28;20714;-58
2022/06/29 09:58:59;;;;;;;10.00;9.00;;;23.50;99.90;;;;;;5016012;28;20485;-53
2022/06/29 10:04:13;;;;;;;9.27;8.00;;;24.20;99.90;;;;;;5017958;28;20409;-55
2022/06/29 10:06:42;;;;;;;9.90;9.00;;;24.60;99.90;;;;;;5010984;28;20418;-55
2022/06/29 10:09:09;;;;;;;9.60;8.50;;;25.10;99.90;;;;;;5010866;28;20414;-51
2022/06/29 10:15:00;;;;;;;11.13;8.83;;;26.50;99.90;;;;;;5012312;28;20754;-55
2022/06/29 10:17:43;;;;;;;9.23;8.33;;;26.80;99.90;;;;;;5013909;28;20423;-53
2022/06/29 10:20:21;;;;;;;9.30;8.17;;;26.80;99.90;;;;;;5017015;28;20452;-58
2022/06/29 10:22:48;;;;;;;9.20;8.30;;;27.10;99.90;;;;;;5018217;28;20444;-56
2022/06/29 10:25:15;;;;;;;10.73;9.60;;;27.30;99.90;;;;;;5018565;28;20445;-55
2022/06/29 10:28:07;;;;;;;10.90;9.53;;;27.40;99.90;;;;;;5016180;28;20405;-49
2022/06/29 10:30:35;;;;;;;10.27;8.73;;;27.70;99.90;;;;;;5021574;28;20531;-53
2022/06/29 10:33:31;;;;;;;10.53;8.70;;;28.00;99.90;;;;;;5022288;28;20535;-51
2022/06/29 10:36:07;;;;;;;6.83;6.20;;;27.80;99.90;;;;;;5018867;28;20582;-51
2022/06/29 10:38:56;;;;;;;7.80;7.10;;;27.30;99.90;;;;;;5018044;28;20439;-54
2022/06/29 10:44:09;;;;;;;9.53;8.63;;;27.30;99.90;;;;;;5020946;28;20437;-48
2022/06/29 10:46:56;;;;;;;8.67;7.87;;;26.80;99.90;;;;;;5021330;28;20621;-49
2022/06/29 10:49:28;;;;;;;8.40;7.70;;;26.60;99.90;;;;;;5021057;28;20446;-51
2022/06/29 10:51:56;;;;;;;8.97;8.07;;;26.30;99.90;;;;;;5020779;28;20452;-48
2022/06/29 10:54:28;;;;;;;10.30;9.30;;;25.70;99.90;;;;;;5020729;28;20438;-50
2022/06/29 10:56:56;;;;;;;8.90;8.00;;;25.80;99.90;;;;;;5017257;28;20643;-48
2022/06/29 10:59:38;;;;;;;9.13;8.10;;;26.20;99.90;;;;;;5009997;28;20516;-52
2022/06/29 11:02:15;;;;;;;9.67;8.77;;;26.20;99.90;;;;;;5008648;28;20496;-50
2022/06/29 11:04:43;;;;;;;8.87;8.10;;;26.50;99.90;;;;;;5017132;28;20440;-55
2022/06/29 11:12:50;;;;;;;8.17;7.37;;;26.40;99.90;;;;;;5012019;28;20429;-53
2022/06/29 11:15:41;;;;;;;8.27;7.47;;;26.60;99.90;;;;;;5012787;28;20443;-47
2022/06/29 11:18:13;;;;;;;7.80;7.10;;;26.60;99.90;;;;;;5016043;28;20435;-53
2022/06/29 11:20:48;;;;;;;8.20;7.40;;;26.70;99.90;;;;;;5012256;28;20481;-52
2022/06/29 11:23:18;;;;;;;10.03;8.10;;;26.70;99.90;;;;;;5012902;28;20541;-48
2022/06/29 11:25:48;;;;;;;7.87;7.17;;;26.60;99.90;;;;;;5008763;28;20431;-49
2022/06/29 11:28:20;;;;;;;9.07;8.17;;;26.20;99.90;;;;;;5016875;28;20442;-52
2022/06/29 11:31:04;;;;;;;10.83;8.30;;;26.40;99.90;;;;;;5008719;28;20491;-53
2022/06/29 11:33:39;;;;;;;9.77;8.83;;;26.70;99.90;;;;;;5016831;28;20474;-51
2022/06/29 11:36:08;;;;;;;8.53;7.47;;;27.00;99.90;;;;;;5009157;28;20431;-50
2022/06/29 11:38:43;;;;;;;9.47;8.53;;;27.00;99.90;;;;;;5017120;28;20448;-52
2022/06/29 11:41:25;;;;;;;9.07;8.30;;;27.00;99.90;;;;;;5011921;28;20447;-46
2022/06/29 11:44:24;;;;;;;10.47;7.90;;;27.10;99.90;;;;;;5018829;28;20463;-50
2022/06/29 11:46:52;;;;;;;8.80;8.00;;;27.40;99.90;;;;;;5012231;28;20633;-48
2022/06/29 11:49:38;;;;;;;11.90;7.30;;;28.00;99.90;;;;;;5010118;28;20688;-49
2022/06/29 11:52:12;;;;;;;10.30;6.93;;;28.10;99.90;;;;;;5017117;28;20525;-51
2022/06/29 11:54:48;;;;;;;10.27;8.77;;;28.30;99.90;;;;;;5015510;28;20773;-46
2022/06/29 11:57:20;;;;;;;10.47;7.77;;;27.80;99.90;;;;;;5015854;28;20659;-49
2022/06/29 11:59:48;;;;;;;7.93;7.33;;;28.10;99.90;;;;;;5012749;28;20464;-49
2022/06/29 12:02:17;;;;;;;8.00;7.20;;;28.30;99.90;;;;;;5018576;28;20454;-46
2022/06/29 12:04:45;;;;;;;6.43;5.83;;;28.10;99.90;;;;;;5022986;28;20541;-51
2022/06/29 12:07:21;;;;;;;16.53;9.00;;;28.60;99.90;;;;;;5028644;28;20445;-51
2022/06/29 12:09:51;;;;;;;8.40;7.57;;;28.60;99.90;;;;;;5006860;28;20662;-48
2022/06/29 12:12:19;;;;;;;7.73;7.03;;;28.60;99.90;;;;;;5012838;28;20862;-54
2022/06/29 12:14:46;;;;;;;8.27;7.50;;;29.00;99.90;;;;;;5014393;28;20681;-56
2022/06/29 12:17:14;;;;;;;7.30;6.60;;;29.60;99.90;;;;;;5015095;28;20446;-47
2022/06/29 12:19:44;;;;;;;7.40;6.50;;;29.60;99.90;;;;;;5010022;28;20545;-47
2022/06/29 12:22:12;;;;;;;7.97;7.27;;;29.40;99.90;;;;;;5009228;28;20470;-50
2022/06/29 12:24:39;;;;;;;8.77;7.97;;;29.30;99.90;;;;;;5014638;28;20503;-52
2022/06/29 12:27:06;;;;;;;8.27;7.60;;;28.60;99.90;;;;;;5008278;28;20811;-48
2022/06/29 12:29:34;;;;;;;8.30;7.53;;;28.40;99.90;;;;;;5014351;28;20434;-50
2022/06/29 12:32:01;;;;;;;7.67;7.00;;;28.60;99.90;;;;;;5008140;28;20736;-52
2022/06/29 12:34:29;;;;;;;8.40;7.47;;;28.60;99.90;;;;;;5015047;28;20513;-55
2022/06/29 12:36:58;;;;;;;7.97;7.27;;;28.50;99.90;;;;;;5008373;28;20438;-51
2022/06/29 12:39:26;;;;;;;9.13;8.33;;;28.70;99.90;;;;;;5009780;28;20524;-50
2022/06/29 12:41:54;;;;;;;8.87;8.00;;;28.70;99.90;;;;;;5010779;28;20725;-49
2022/06/29 12:44:22;;;;;;;7.77;7.07;;;28.60;99.90;;;;;;5016670;28;20628;-54
2022/06/29 12:46:49;;;;;;;9.40;8.50;;;28.60;99.90;;;;;;5012736;28;20434;-48
2022/06/29 12:49:17;;;;;;;8.63;7.87;;;28.80;99.90;;;;;;5008656;28;20447;-53
2022/06/29 12:51:45;;;;;;;6.93;6.33;;;29.20;99.90;;;;;;5015090;28;20442;-49
2022/06/29 12:54:12;;;;;;;10.13;7.47;;;29.50;99.90;;;;;;5006805;28;20462;-47
2022/06/29 12:56:41;;;;;;;8.50;7.60;;;29.40;99.90;;;;;;5006910;28;20439;-50
2022/06/29 12:59:11;;;;;;;7.13;6.63;;;29.20;99.90;;;;;;5013645;28;20450;-49
2022/06/29 13:01:38;;;;;;;8.83;7.80;;;29.10;99.90;;;;;;5013603;28;20467;-50
2022/06/29 13:04:06;;;;;;;7.30;6.47;;;29.00;99.90;;;;;;5008972;28;20459;-50
2022/06/29 13:06:33;;;;;;;7.50;6.90;;;29.00;99.90;;;;;;5011849;28;20439;-49
2022/06/29 13:09:01;;;;;;;8.83;7.97;;;29.10;99.90;;;;;;5010344;28;20489;-47
2022/06/29 13:11:28;;;;;;;8.27;7.50;;;29.10;99.90;;;;;;5011216;28;20509;-51
2022/06/29 13:13:56;;;;;;;9.30;8.33;;;29.20;99.90;;;;;;5007065;28;20585;-47
2022/06/29 13:16:27;;;;;;;7.77;6.10;;;29.30;99.90;;;;;;5005514;28;20509;-54
2022/06/29 13:18:54;;;;;;;9.63;8.40;;;29.50;99.90;;;;;;5014163;28;20497;-52